createdAt,value
2019-04-16T00:01:49.093Z,71.40
2019-04-16T00:05:04.625Z,71.50
2019-04-16T00:08:27.119Z,71.70
2019-04-16T00:11:28.628Z,71.30
2019-04-16T00:14:35.319Z,72.80
2019-04-16T00:17:38.727Z,73.10
2019-04-16T00:21:09.859Z,73.60
2019-04-16T00:24:22.140Z,72.80
2019-04-16T00:27:28.269Z,71.70
2019-04-16T00:30:30.378Z,72.40
2019-04-16T00:33:33.488Z,71.90
2019-04-16T00:36:36.405Z,72.10
2019-04-16T00:39:39.353Z,72.30
2019-04-16T00:42:42.584Z,72.40
2019-04-16T00:45:45.542Z,72.30
2019-04-16T00:48:48.493Z,72.40
2019-04-16T00:51:52.040Z,72.60
2019-04-16T00:54:55.378Z,72.70
2019-04-16T00:57:58.589Z,72.80
2019-04-16T01:01:02.970Z,73.00
2019-04-16T01:04:06.138Z,73.80
2019-04-16T01:07:09.508Z,72.90
2019-04-16T01:10:12.857Z,73.20
2019-04-16T01:13:16.300Z,73.40
2019-04-16T01:16:19.252Z,73.30
2019-04-16T01:19:22.261Z,73.40
2019-04-16T01:22:25.594Z,73.10
2019-04-16T01:25:28.518Z,73.10
2019-04-16T01:28:33.936Z,73.40
2019-04-16T01:32:12.170Z,73.40
2019-04-16T01:35:29.609Z,73.00
2019-04-16T01:39:14.840Z,73.50
2019-04-16T01:42:02.796Z,74.60
2019-04-16T01:45:06.716Z,75.50
2019-04-16T01:48:09.851Z,75.70
2019-04-16T01:51:15.408Z,74.40
2019-04-16T01:54:22.538Z,73.60
2019-04-16T01:57:23.123Z,74.00
2019-04-16T02:00:26.388Z,75.00
2019-04-16T02:03:29.332Z,73.60
2019-04-16T02:06:32.966Z,74.70
2019-04-16T02:09:36.301Z,74.60
2019-04-16T02:12:43.668Z,74.90
2019-04-16T02:15:44.412Z,76.10
2019-04-16T02:18:47.359Z,76.50
2019-04-16T02:21:50.307Z,76.20
2019-04-16T02:24:54.716Z,75.60
2019-04-16T02:27:57.884Z,76.60
2019-04-16T02:31:01.086Z,76.90
2019-04-16T02:34:04.022Z,77.20
2019-04-16T02:37:07.294Z,77.00
2019-04-16T02:40:16.903Z,76.50
2019-04-16T02:43:15.884Z,76.80
2019-04-16T02:46:18.825Z,77.60
2019-04-16T02:49:24.537Z,77.50
2019-04-16T02:52:51.215Z,78.00
2019-04-16T02:56:18.770Z,77.40
2019-04-16T02:59:23.243Z,77.90
2019-04-16T03:02:53.619Z,77.80
2019-04-16T03:05:55.132Z,78.70
2019-04-16T03:08:58.506Z,78.50
2019-04-16T03:12:01.450Z,77.30
2019-04-16T03:15:05.559Z,77.30
2019-04-16T03:18:14.134Z,76.90
2019-04-16T03:21:14.042Z,77.40
2019-04-16T03:24:17.284Z,78.60
2019-04-16T03:27:22.896Z,79.10
2019-04-16T03:30:25.960Z,78.20
2019-04-16T03:33:29.460Z,77.50
2019-04-16T03:36:32.388Z,78.00
2019-04-16T03:39:35.660Z,78.40
2019-04-16T03:42:38.921Z,78.80
2019-04-16T03:45:41.881Z,78.10
2019-04-16T03:48:46.517Z,78.70
2019-04-16T03:51:49.445Z,80.00
2019-04-16T03:54:54.120Z,79.30
2019-04-16T03:57:57.853Z,78.80
2019-04-16T04:01:01.064Z,78.90
2019-04-16T04:04:04.551Z,78.80
2019-04-16T04:07:08.763Z,79.40
2019-04-16T04:10:12.572Z,79.80
2019-04-16T04:13:18.592Z,79.40
2019-04-16T04:16:21.123Z,78.50
2019-04-16T04:19:24.697Z,79.10
2019-04-16T04:22:27.643Z,79.00
2019-04-16T04:25:42.866Z,79.20
2019-04-16T04:28:48.639Z,78.70
2019-04-16T04:31:53.312Z,79.00
2019-04-16T04:34:56.237Z,79.10
2019-04-16T04:38:00.745Z,79.10
2019-04-16T04:41:04.964Z,79.30
2019-04-16T04:44:08.574Z,79.50
2019-04-16T04:47:11.983Z,79.30
2019-04-16T04:50:15.384Z,79.30
2019-04-16T04:53:19.922Z,78.90
2019-04-16T04:56:27.740Z,79.40
2019-04-16T04:59:30.028Z,79.80
2019-04-16T05:02:33.055Z,80.00
2019-04-16T05:05:43.713Z,79.80
2019-04-16T05:08:47.031Z,80.90
2019-04-16T05:11:50.034Z,81.60
2019-04-16T05:14:57.367Z,81.10
2019-04-16T05:17:58.470Z,81.60
2019-04-16T05:21:02.072Z,81.10
2019-04-16T05:24:04.984Z,80.80
2019-04-16T05:27:08.506Z,81.10
2019-04-16T05:30:13.243Z,81.50
2019-04-16T05:33:16.798Z,81.40
2019-04-16T05:36:21.367Z,82.10
2019-04-16T05:39:28.517Z,82.70
2019-04-16T05:42:32.357Z,82.50
2019-04-16T05:45:37.671Z,82.30
2019-04-16T05:48:40.506Z,82.70
2019-04-16T05:51:43.787Z,82.20
2019-04-16T05:55:04.802Z,82.80
2019-04-16T05:58:08.045Z,82.70
2019-04-16T06:01:36.904Z,82.70
2019-04-16T06:04:40.940Z,82.50
2019-04-16T06:07:44.185Z,82.60
2019-04-16T06:10:51.078Z,83.00
2019-04-16T06:14:03.602Z,83.40
2019-04-16T06:17:25.798Z,83.40
2019-04-16T06:20:37.565Z,83.90
2019-04-16T06:24:09.864Z,84.70
2019-04-16T06:27:35.914Z,85.00
2019-04-16T06:31:10.121Z,85.90
2019-04-16T06:34:31.164Z,86.20
2019-04-16T06:37:40.126Z,87.30
2019-04-16T06:41:05.680Z,87.90
2019-04-16T06:44:15.524Z,88.30
2019-04-16T06:47:47.660Z,88.40
2019-04-16T06:51:11.691Z,88.70
2019-04-16T06:54:31.876Z,89.30
2019-04-16T06:58:12.538Z,89.80
2019-04-16T07:01:36.973Z,88.50
2019-04-16T07:04:51.382Z,89.40
2019-04-16T07:08:20.135Z,89.50
2019-04-16T07:11:23.971Z,88.50
2019-04-16T07:14:28.359Z,89.00
2019-04-16T07:17:33.665Z,88.90
2019-04-16T07:20:37.421Z,88.10
2019-04-16T07:23:40.452Z,88.40
2019-04-16T07:26:47.653Z,85.40
2019-04-16T07:29:52.117Z,86.90
2019-04-16T07:33:17.779Z,85.90
2019-04-16T07:36:31.291Z,86.00
2019-04-16T07:39:46.457Z,85.10
2019-04-16T07:42:58.959Z,84.60
2019-04-16T07:46:20.781Z,83.30
2019-04-16T07:49:43.700Z,81.00
2019-04-16T07:53:18.566Z,79.80
2019-04-16T07:56:24.435Z,79.50
2019-04-16T07:59:31.970Z,78.70
2019-04-16T08:02:33.660Z,79.70
2019-04-16T08:05:37.726Z,79.80
2019-04-16T08:08:42.777Z,79.60
2019-04-16T08:11:46.168Z,79.70
2019-04-16T08:14:49.998Z,80.60
2019-04-16T08:17:53.342Z,78.00
2019-04-16T08:21:02.153Z,76.80
2019-04-16T08:24:05.293Z,77.40
2019-04-16T08:27:10.412Z,78.60
2019-04-16T08:30:14.255Z,78.20
2019-04-16T08:33:17.256Z,78.90
2019-04-16T08:36:20.665Z,76.50
2019-04-16T08:39:23.702Z,77.20
2019-04-16T08:42:29.482Z,78.60
2019-04-16T08:45:31.868Z,78.50
2019-04-16T08:48:34.782Z,77.80
2019-04-16T08:51:38.318Z,76.70
2019-04-16T08:54:41.278Z,78.40
2019-04-16T08:57:46.775Z,78.00
2019-04-16T09:00:49.610Z,75.90
2019-04-16T09:03:52.539Z,77.90
2019-04-16T09:07:09.600Z,79.70
2019-04-16T09:10:10.122Z,77.40
2019-04-16T09:13:09.144Z,77.50
2019-04-16T09:16:12.140Z,79.20
2019-04-16T09:19:16.531Z,77.00
2019-04-16T09:22:20.841Z,76.00
2019-04-16T09:25:55.630Z,76.90
2019-04-16T09:29:16.939Z,78.50
2019-04-16T09:32:28.224Z,77.20
2019-04-16T09:35:56.620Z,76.50
2019-04-16T09:39:37.690Z,76.30
2019-04-16T09:42:41.086Z,76.80
2019-04-16T09:45:45.232Z,74.90
2019-04-16T09:48:50.142Z,74.60
2019-04-16T09:51:53.442Z,76.50
2019-04-16T09:54:57.107Z,75.10
2019-04-16T09:58:06.911Z,76.00
2019-04-16T10:01:11.027Z,75.50
2019-04-16T10:04:16.636Z,73.70
2019-04-16T10:07:19.884Z,74.70
2019-04-16T10:10:24.253Z,75.40
2019-04-16T10:13:31.805Z,76.40
2019-04-16T10:16:34.127Z,76.00
2019-04-16T10:19:37.139Z,76.60
2019-04-16T10:22:40.466Z,71.70
2019-04-16T10:25:43.891Z,73.90
2019-04-16T10:28:46.902Z,71.00
2019-04-16T10:31:50.854Z,71.30
2019-04-16T10:34:54.477Z,73.70
2019-04-16T10:38:01.345Z,69.80
2019-04-16T10:41:17.631Z,71.10
2019-04-16T10:44:40.287Z,73.60
2019-04-16T10:48:15.320Z,72.00
2019-04-16T10:51:50.466Z,69.90
2019-04-16T10:55:05.381Z,68.20
2019-04-16T10:58:44.132Z,68.80
2019-04-16T11:02:09.763Z,68.50
2019-04-16T11:05:24.528Z,69.10
2019-04-16T11:08:27.618Z,65.20
2019-04-16T11:11:31.053Z,65.60
2019-04-16T11:14:34.200Z,67.50
2019-04-16T11:17:38.140Z,65.80
2019-04-16T11:20:41.255Z,65.70
2019-04-16T11:23:47.602Z,68.00
2019-04-16T11:26:51.239Z,65.50
2019-04-16T11:29:54.392Z,65.50
2019-04-16T11:32:57.958Z,63.30
2019-04-16T11:36:00.873Z,64.50
2019-04-16T11:39:07.336Z,63.30
2019-04-16T11:42:10.683Z,62.50
2019-04-16T11:45:14.892Z,64.20
2019-04-16T11:48:18.248Z,62.10
2019-04-16T11:51:21.283Z,62.40
2019-04-16T11:54:24.485Z,62.90
2019-04-16T11:57:29.359Z,64.50
2019-04-16T12:00:41.274Z,60.50
2019-04-16T12:03:56.094Z,61.60
2019-04-16T12:07:20.653Z,62.70
2019-04-16T12:10:58.593Z,59.60
2019-04-16T12:14:42.586Z,60.70
2019-04-16T12:18:04.373Z,61.90
2019-04-16T12:25:04.675Z,58.60
2019-04-16T12:28:30.332Z,58.00
2019-04-16T12:31:53.050Z,47.20
2019-04-16T12:35:25.279Z,46.60
2019-04-16T12:38:35.232Z,47.90
2019-04-16T12:41:51.721Z,44.80
2019-04-16T12:45:13.083Z,48.50
2019-04-16T12:48:36.615Z,44.40
2019-04-16T12:52:08.526Z,42.00
2019-04-16T12:55:32.465Z,46.10
2019-04-16T12:59:02.140Z,43.90
2019-04-16T13:02:20.112Z,42.80
2019-04-16T13:05:29.042Z,42.30
2019-04-16T13:08:57.926Z,40.70
2019-04-16T13:12:19.805Z,41.70
2019-04-16T13:15:34.947Z,43.20
2019-04-16T13:18:57.496Z,40.00
2019-04-16T13:22:01.019Z,41.00
2019-04-16T13:25:33.839Z,40.60
2019-04-16T13:28:36.775Z,41.20
2019-04-16T13:31:40.006Z,41.10
2019-04-16T13:34:43.248Z,45.40
2019-04-16T13:37:46.468Z,40.80
2019-04-16T13:40:50.208Z,43.90
2019-04-16T13:43:58.866Z,42.70
2019-04-16T13:47:03.811Z,38.10
2019-04-16T13:50:15.905Z,38.90
2019-04-16T13:53:41.975Z,40.90
2019-04-16T13:56:51.608Z,38.70
2019-04-16T14:00:08.777Z,36.50
2019-04-16T14:03:14.058Z,37.80
2019-04-16T14:06:17.039Z,38.80
2019-04-16T14:09:19.987Z,39.50
2019-04-16T14:12:40.799Z,36.60
2019-04-16T14:15:32.260Z,40.70
2019-04-16T14:18:35.792Z,37.00
2019-04-16T14:21:39.087Z,36.60
2019-04-16T14:24:42.389Z,37.50
2019-04-16T14:27:45.418Z,38.40
2019-04-16T14:30:50.008Z,39.20
2019-04-16T14:34:07.593Z,39.10
2019-04-16T14:37:10.624Z,40.60
2019-04-16T14:40:18.270Z,42.00
2019-04-16T14:43:29.228Z,37.80
2019-04-16T14:46:31.470Z,39.90
2019-04-16T14:49:34.439Z,38.80
2019-04-16T14:52:37.388Z,36.70
2019-04-16T14:56:01.201Z,39.50
2019-04-16T14:59:34.104Z,40.20
2019-04-16T15:02:41.774Z,41.50
2019-04-16T15:05:54.471Z,39.70
2019-04-16T15:09:09.917Z,38.60
2019-04-16T15:12:41.830Z,40.00
2019-04-16T15:16:10.747Z,39.20
2019-04-16T15:19:27.628Z,38.30
2019-04-16T15:22:40.397Z,38.00
2019-04-16T15:26:13.037Z,39.40
2019-04-16T15:29:23.462Z,39.90
2019-04-16T15:32:48.171Z,39.30
2019-04-16T15:35:57.540Z,39.20
2019-04-16T15:39:06.474Z,41.90
2019-04-16T15:42:49.040Z,42.30
2019-04-16T15:46:26.964Z,41.30
2019-04-16T15:49:55.664Z,40.70
2019-04-16T15:53:03.282Z,41.40
2019-04-16T15:56:10.766Z,41.90
2019-04-16T15:59:33.374Z,45.30
2019-04-16T16:03:05.740Z,41.80
2019-04-16T16:06:12.157Z,42.10
2019-04-16T16:09:22.530Z,44.30
2019-04-16T16:12:27.540Z,43.60
2019-04-16T16:15:30.504Z,42.10
2019-04-16T16:18:35.745Z,45.50
2019-04-16T16:21:38.409Z,43.20
2019-04-16T16:24:42.336Z,43.80
2019-04-16T16:27:47.206Z,43.60
2019-04-16T16:30:50.342Z,45.20
2019-04-16T16:33:53.677Z,44.50
2019-04-16T16:36:57.097Z,44.10
2019-04-16T16:40:00.059Z,45.10
2019-04-16T16:43:06.792Z,44.80
2019-04-16T16:46:30.645Z,44.80
2019-04-16T16:49:33.965Z,44.10
2019-04-16T16:53:05.901Z,44.80
2019-04-16T16:56:15.047Z,44.00
2019-04-16T16:59:34.068Z,45.40
2019-04-16T17:02:59.805Z,45.50
2019-04-16T17:06:04.472Z,49.10
2019-04-16T17:09:12.348Z,48.10
2019-04-16T17:12:15.651Z,51.10
2019-04-16T17:15:19.047Z,51.40
2019-04-16T17:18:22.003Z,50.00
2019-04-16T17:21:24.965Z,52.00
2019-04-16T17:24:27.908Z,50.10
2019-04-16T17:27:31.254Z,54.00
2019-04-16T17:30:34.356Z,53.80
2019-04-16T17:33:37.683Z,56.20
2019-04-16T17:36:40.620Z,53.30
2019-04-16T17:39:54.721Z,51.10
2019-04-16T17:43:02.328Z,55.90
2019-04-16T17:46:27.733Z,56.90
2019-04-16T17:49:35.441Z,58.40
2019-04-16T17:52:42.486Z,59.60
2019-04-16T17:55:50.332Z,60.20
2019-04-16T17:58:59.750Z,60.20
2019-04-16T18:02:21.342Z,61.40
2019-04-16T18:05:34.625Z,62.50
2019-04-16T18:09:03.930Z,62.50
2019-04-16T18:12:34.425Z,63.80
2019-04-16T18:16:06.120Z,63.80
2019-04-16T18:19:24.812Z,65.40
2019-04-16T18:22:44.895Z,62.70
2019-04-16T18:26:12.143Z,59.90
2019-04-16T18:29:46.987Z,60.30
2019-04-16T18:33:08.146Z,61.50
2019-04-16T18:36:30.432Z,62.90
2019-04-16T18:39:44.866Z,63.90
2019-04-16T18:43:19.544Z,64.90
2019-04-16T18:46:37.357Z,65.20
2019-04-16T18:49:40.778Z,65.60
2019-04-16T18:52:44.171Z,65.90
2019-04-16T18:55:47.380Z,66.30
2019-04-16T18:58:50.423Z,66.30
2019-04-16T19:01:58.767Z,67.70
2019-04-16T19:05:02.716Z,68.30
2019-04-16T19:08:08.283Z,66.80
2019-04-16T19:11:11.254Z,67.30
2019-04-16T19:14:14.279Z,68.10
2019-04-16T19:17:17.521Z,68.40
2019-04-16T19:20:20.562Z,67.90
2019-04-16T19:23:23.502Z,69.00
2019-04-16T19:26:30.086Z,69.10
2019-04-16T19:29:32.058Z,71.30
2019-04-16T19:32:35.341Z,70.60
2019-04-16T19:35:38.618Z,70.70
2019-04-16T19:38:41.532Z,70.10
2019-04-16T19:41:44.485Z,72.00
2019-04-16T19:44:47.752Z,71.60
2019-04-16T19:47:50.695Z,72.00
2019-04-16T19:50:53.662Z,72.80
2019-04-16T19:53:57.062Z,72.50
2019-04-16T19:57:00.341Z,73.10
2019-04-16T20:00:03.905Z,73.30
2019-04-16T20:03:08.448Z,74.10
2019-04-16T20:06:11.854Z,74.00
2019-04-16T20:09:14.886Z,74.50
2019-04-16T20:12:19.683Z,75.50
2019-04-16T20:15:22.866Z,76.20
2019-04-16T20:18:30.253Z,75.50
2019-04-16T20:21:33.346Z,76.50
2019-04-16T20:24:36.293Z,76.60
2019-04-16T20:27:40.751Z,76.70
2019-04-16T20:30:44.458Z,77.60
2019-04-16T20:33:48.588Z,77.40
2019-04-16T20:36:52.181Z,77.50
2019-04-16T20:39:56.707Z,77.70
2019-04-16T20:42:59.670Z,78.10
2019-04-16T20:46:02.984Z,77.80
2019-04-16T20:49:09.932Z,79.00
2019-04-16T20:52:11.422Z,79.20
2019-04-16T20:55:16.046Z,79.20
2019-04-16T20:58:19.500Z,79.60
2019-04-16T21:01:34.042Z,81.00
2019-04-16T21:04:27.345Z,80.10
2019-04-16T21:07:30.354Z,79.90
2019-04-16T21:10:35.669Z,80.30
2019-04-16T21:13:38.138Z,80.30
2019-04-16T21:16:41.064Z,81.00
2019-04-16T21:19:47.990Z,81.60
2019-04-16T21:50:47.173Z,86.60
2019-04-16T21:53:49.650Z,86.90
2019-04-16T21:56:54.801Z,87.70
2019-04-16T22:00:05.071Z,88.10
2019-04-16T22:03:59.880Z,87.30
2019-04-16T22:07:02.923Z,88.10
2019-04-16T22:10:06.301Z,88.20
2019-04-16T22:13:09.218Z,89.90
2019-04-16T22:16:12.924Z,90.00
2019-04-16T22:19:15.819Z,89.10
2019-04-16T22:22:19.352Z,89.90
2019-04-16T22:25:23.738Z,89.90
2019-04-16T22:28:28.520Z,90.10
2019-04-16T22:31:32.160Z,90.30
2019-04-16T22:34:35.062Z,90.50
2019-04-16T22:37:38.322Z,91.10
2019-04-16T22:40:54.922Z,91.30
2019-04-16T22:44:12.358Z,91.90
2019-04-16T22:47:23.061Z,92.70
2019-04-16T22:50:26.368Z,92.80
2019-04-16T22:53:29.290Z,92.50
2019-04-16T22:56:54.400Z,92.30
2019-04-16T22:59:57.324Z,92.60
2019-04-16T23:03:00.236Z,92.60
2019-04-16T23:06:05.451Z,92.00
2019-04-16T23:09:08.161Z,91.60
2019-04-16T23:12:12.938Z,91.60
2019-04-16T23:15:16.269Z,91.70
2019-04-16T23:18:19.358Z,91.50
2019-04-16T23:21:22.595Z,91.60
2019-04-16T23:46:06.884Z,91.80
2019-04-16T23:49:29.954Z,92.00
2019-04-16T23:52:35.652Z,92.20
2019-04-16T23:55:53.083Z,92.20
2019-04-16T23:59:02.563Z,92.30
